DNIL

Ilorin International Airport

Ilorin, Nigeria
METAR DNIL 231800Z 21004KT 9999 FEW011 FEW020CB 32/23 Q1010
Observed Flight Rules
Apr-23 @ 18:00 UTC (5 hours ago) Visual Flight Rules
Wind Visibility Clouds
210° at 4 knots 10,000+ meters
  • Few at 1,100' AGL
  • Few at 2,000' AGL
Temperatures Readings
Current 32°C / 90°F
Dewpoint 23°C / 73°F
Humidity 59%
Altimeter 29.82" Hg
Pressure 1010 hPa
Elevation 305
METAR DNIL 231800Z 21004KT 9999 FEW011 FEW020CB 32/23 Q1010
Observed Flight Rules
Apr-23 @ 18:00 UTC
(5 hours ago)
VFR
Wind Visibility
210° at 4 knots 10,000+ meters
Clouds
  • Few at 1,100' AGL
  • Few at 2,000' AGL
Temperature Dewpoint
32°C / 90°F 23°C / 73°F
Humidity Altimeter Pressure
59% 29.82" Hg 1010 hPa